Monterey (MRY/KMRY)

Map

Destinations

Information

Location
Monterey, CA
Local Time
15:29 / 3:29 pm
GMT Time
22:29 / 10:29 pm
Gates
1
No FAA reported delays
METAR KMRY 242154Z 21014KT 10SM CLR 19/13 A2990 RMK AO2 SLP136 T01940128
TAF KMRY 241900Z 2419/2518 24010KT P6SM FEW014 FM250200 24006KT P6SM SCT010 TEMPO 2502/2505 OVC008 FM250500 24004KT 5SM BR OVC008